Terminal Aerodrome Forecast
Issued by NWS Memphis, TN

Current Version | Previous Version | Text Only | Print | Product List | Glossary On
Versions: 1 2 3 4 5 6 7 8 9 10 11 12 13 14 15 16 17 18 19 20 21 22 23 24 25 26 27 28 29
000
FTUS44 KMEG 171443 AAB
TAFMEM
TAF AMD
KMEM 171443Z 1715/1812 23010KT P6SM BKN016 OVC025
     FM171700 24012G18KT P6SM VCTS SCT025CB BKN035
      TEMPO 1718/1720 6SM -SHRA BKN035
     FM172100 24010KT P6SM SCT035 SCT150
     FM180100 22006KT P6SM FEW040 SCT250
     FM180900 30005KT P6SM FEW250=

USA.gov is the U.S. government's official web portal to all federal, state and local government web resources and services.